sensor_id;sensor_type;location;lat;lon;timestamp;P1;durP1;ratioP1;P2;durP2;ratioP2
944;SDS011;459;48.676;9.034;2022-09-17T00:02:23;1.30;;;1.20;;
944;SDS011;459;48.676;9.034;2022-09-17T00:04:49;1.17;;;1.07;;
944;SDS011;459;48.676;9.034;2022-09-17T00:07:15;7.53;;;1.50;;
944;SDS011;459;48.676;9.034;2022-09-17T00:09:40;1.20;;;1.10;;
944;SDS011;459;48.676;9.034;2022-09-17T00:12:05;1.23;;;1.10;;
944;SDS011;459;48.676;9.034;2022-09-17T00:14:30;2.57;;;1.20;;
944;SDS011;459;48.676;9.034;2022-09-17T00:16:55;2.20;;;1.20;;
944;SDS011;459;48.676;9.034;2022-09-17T00:19:21;1.80;;;1.23;;
944;SDS011;459;48.676;9.034;2022-09-17T00:21:47;1.70;;;0.90;;
944;SDS011;459;48.676;9.034;2022-09-17T00:24:12;1.57;;;1.37;;
944;SDS011;459;48.676;9.034;2022-09-17T00:26:38;4.00;;;1.53;;
944;SDS011;459;48.676;9.034;2022-09-17T00:29:03;1.67;;;1.33;;
944;SDS011;459;48.676;9.034;2022-09-17T00:31:29;1.77;;;1.20;;
944;SDS011;459;48.676;9.034;2022-09-17T00:33:55;2.30;;;1.10;;
944;SDS011;459;48.676;9.034;2022-09-17T00:36:22;0.90;;;0.90;;
944;SDS011;459;48.676;9.034;2022-09-17T00:38:50;2.03;;;1.07;;
944;SDS011;459;48.676;9.034;2022-09-17T00:41:16;2.33;;;1.47;;
944;SDS011;459;48.676;9.034;2022-09-17T00:43:43;2.90;;;1.53;;
944;SDS011;459;48.676;9.034;2022-09-17T00:46:11;1.50;;;1.40;;
944;SDS011;459;48.676;9.034;2022-09-17T00:48:38;4.93;;;1.87;;
944;SDS011;459;48.676;9.034;2022-09-17T00:51:04;1.27;;;1.17;;
944;SDS011;459;48.676;9.034;2022-09-17T00:53:32;4.17;;;1.60;;
944;SDS011;459;48.676;9.034;2022-09-17T00:56:00;2.03;;;1.07;;
944;SDS011;459;48.676;9.034;2022-09-17T00:58:27;1.53;;;1.40;;
944;SDS011;459;48.676;9.034;2022-09-17T01:00:52;1.87;;;1.40;;
944;SDS011;459;48.676;9.034;2022-09-17T01:03:17;1.57;;;1.47;;
944;SDS011;459;48.676;9.034;2022-09-17T01:05:47;2.40;;;2.00;;
944;SDS011;459;48.676;9.034;2022-09-17T01:08:59;2.10;;;1.27;;
944;SDS011;459;48.676;9.034;2022-09-17T01:16:05;1.40;;;1.30;;
944;SDS011;459;48.676;9.034;2022-09-17T01:18:38;2.80;;;1.40;;
944;SDS011;459;48.676;9.034;2022-09-17T01:24:24;3.23;;;1.37;;
944;SDS011;459;48.676;9.034;2022-09-17T01:26:49;1.63;;;1.53;;
944;SDS011;459;48.676;9.034;2022-09-17T01:31:53;1.73;;;1.63;;
944;SDS011;459;48.676;9.034;2022-09-17T01:39:46;3.83;;;2.07;;
944;SDS011;459;48.676;9.034;2022-09-17T01:42:17;4.40;;;2.40;;
944;SDS011;459;48.676;9.034;2022-09-17T01:44:46;2.57;;;2.37;;
944;SDS011;459;48.676;9.034;2022-09-17T01:47:21;2.30;;;2.10;;
944;SDS011;459;48.676;9.034;2022-09-17T01:49:47;2.33;;;2.23;;
944;SDS011;459;48.676;9.034;2022-09-17T01:52:14;2.10;;;1.90;;
944;SDS011;459;48.676;9.034;2022-09-17T01:54:44;2.43;;;2.33;;
944;SDS011;459;48.676;9.034;2022-09-17T01:57:19;1.87;;;1.77;;
944;SDS011;459;48.676;9.034;2022-09-17T01:59:54;2.27;;;1.77;;
944;SDS011;459;48.676;9.034;2022-09-17T02:02:26;1.87;;;1.67;;
944;SDS011;459;48.676;9.034;2022-09-17T02:05:34;2.10;;;2.00;;
944;SDS011;459;48.676;9.034;2022-09-17T02:07:41;2.93;;;2.40;;
944;SDS011;459;48.676;9.034;2022-09-17T02:10:09;2.87;;;2.20;;
944;SDS011;459;48.676;9.034;2022-09-17T02:15:12;3.17;;;1.80;;
944;SDS011;459;48.676;9.034;2022-09-17T02:17:43;3.47;;;2.50;;
944;SDS011;459;48.676;9.034;2022-09-17T02:20:09;2.03;;;1.93;;
944;SDS011;459;48.676;9.034;2022-09-17T02:22:49;1.90;;;1.80;;
944;SDS011;459;48.676;9.034;2022-09-17T02:27:46;2.22;;;2.00;;
944;SDS011;459;48.676;9.034;2022-09-17T02:30:13;10.70;;;2.50;;
944;SDS011;459;48.676;9.034;2022-09-17T02:32:38;2.37;;;2.17;;
944;SDS011;459;48.676;9.034;2022-09-17T02:35:03;2.80;;;2.10;;
944;SDS011;459;48.676;9.034;2022-09-17T02:37:30;3.13;;;1.80;;
944;SDS011;459;48.676;9.034;2022-09-17T02:39:55;7.30;;;2.30;;
944;SDS011;459;48.676;9.034;2022-09-17T02:42:22;3.17;;;2.00;;
944;SDS011;459;48.676;9.034;2022-09-17T02:52:51;5.67;;;1.70;;
944;SDS011;459;48.676;9.034;2022-09-17T02:55:28;2.63;;;1.60;;
944;SDS011;459;48.676;9.034;2022-09-17T02:58:43;3.70;;;2.00;;
944;SDS011;459;48.676;9.034;2022-09-17T03:00:41;2.50;;;2.13;;
944;SDS011;459;48.676;9.034;2022-09-17T03:03:19;5.30;;;2.20;;
944;SDS011;459;48.676;9.034;2022-09-17T03:05:45;3.10;;;1.97;;
944;SDS011;459;48.676;9.034;2022-09-17T03:08:11;3.70;;;2.10;;
944;SDS011;459;48.676;9.034;2022-09-17T03:10:38;2.40;;;1.90;;
944;SDS011;459;48.676;9.034;2022-09-17T03:13:04;3.30;;;1.67;;
944;SDS011;459;48.676;9.034;2022-09-17T03:15:29;2.43;;;1.77;;
944;SDS011;459;48.676;9.034;2022-09-17T03:17:54;2.43;;;1.60;;
944;SDS011;459;48.676;9.034;2022-09-17T03:20:20;3.80;;;2.00;;
944;SDS011;459;48.676;9.034;2022-09-17T03:22:45;2.70;;;1.70;;
944;SDS011;459;48.676;9.034;2022-09-17T03:25:11;6.10;;;2.00;;
944;SDS011;459;48.676;9.034;2022-09-17T03:27:36;1.70;;;1.60;;
944;SDS011;459;48.676;9.034;2022-09-17T03:30:01;2.20;;;2.00;;
944;SDS011;459;48.676;9.034;2022-09-17T03:32:26;2.67;;;1.63;;
944;SDS011;459;48.676;9.034;2022-09-17T03:34:52;2.13;;;1.73;;
944;SDS011;459;48.676;9.034;2022-09-17T03:37:18;5.03;;;2.10;;
944;SDS011;459;48.676;9.034;2022-09-17T03:39:44;4.83;;;1.70;;
944;SDS011;459;48.676;9.034;2022-09-17T03:42:09;3.50;;;1.67;;
944;SDS011;459;48.676;9.034;2022-09-17T03:44:34;5.10;;;2.33;;
944;SDS011;459;48.676;9.034;2022-09-17T03:46:59;5.60;;;2.10;;
944;SDS011;459;48.676;9.034;2022-09-17T03:49:25;5.07;;;1.87;;
944;SDS011;459;48.676;9.034;2022-09-17T03:51:50;5.63;;;1.73;;
944;SDS011;459;48.676;9.034;2022-09-17T03:54:15;2.47;;;1.70;;
944;SDS011;459;48.676;9.034;2022-09-17T03:56:41;2.27;;;1.73;;
944;SDS011;459;48.676;9.034;2022-09-17T03:59:06;2.40;;;1.80;;
944;SDS011;459;48.676;9.034;2022-09-17T04:01:31;3.83;;;1.97;;
944;SDS011;459;48.676;9.034;2022-09-17T04:03:57;2.80;;;2.47;;
944;SDS011;459;48.676;9.034;2022-09-17T04:06:22;3.83;;;2.07;;
944;SDS011;459;48.676;9.034;2022-09-17T04:08:47;1.93;;;1.70;;
944;SDS011;459;48.676;9.034;2022-09-17T04:11:13;3.10;;;2.33;;
944;SDS011;459;48.676;9.034;2022-09-17T04:13:38;7.63;;;2.00;;
944;SDS011;459;48.676;9.034;2022-09-17T04:16:03;1.67;;;1.53;;
944;SDS011;459;48.676;9.034;2022-09-17T04:18:28;3.63;;;2.10;;
944;SDS011;459;48.676;9.034;2022-09-17T04:20:54;3.30;;;2.13;;
944;SDS011;459;48.676;9.034;2022-09-17T04:23:19;4.73;;;2.17;;
944;SDS011;459;48.676;9.034;2022-09-17T04:25:44;2.30;;;1.73;;
944;SDS011;459;48.676;9.034;2022-09-17T04:28:10;2.30;;;1.77;;
944;SDS011;459;48.676;9.034;2022-09-17T04:30:35;1.87;;;1.67;;
944;SDS011;459;48.676;9.034;2022-09-17T04:33:00;2.37;;;2.17;;
944;SDS011;459;48.676;9.034;2022-09-17T04:35:25;4.30;;;2.00;;
944;SDS011;459;48.676;9.034;2022-09-17T04:37:51;2.20;;;2.00;;
944;SDS011;459;48.676;9.034;2022-09-17T04:40:16;4.17;;;1.73;;
944;SDS011;459;48.676;9.034;2022-09-17T04:42:41;3.00;;;2.63;;
944;SDS011;459;48.676;9.034;2022-09-17T04:45:07;2.17;;;1.83;;
944;SDS011;459;48.676;9.034;2022-09-17T04:47:32;2.43;;;2.20;;
944;SDS011;459;48.676;9.034;2022-09-17T04:49:57;6.23;;;2.20;;
944;SDS011;459;48.676;9.034;2022-09-17T04:52:22;5.30;;;3.00;;
944;SDS011;459;48.676;9.034;2022-09-17T04:54:47;3.30;;;3.00;;
944;SDS011;459;48.676;9.034;2022-09-17T04:57:13;4.80;;;2.37;;
944;SDS011;459;48.676;9.034;2022-09-17T04:59:38;2.70;;;2.13;;
944;SDS011;459;48.676;9.034;2022-09-17T05:02:03;3.47;;;2.07;;
944;SDS011;459;48.676;9.034;2022-09-17T05:04:28;3.00;;;2.37;;
944;SDS011;459;48.676;9.034;2022-09-17T05:06:53;3.73;;;2.73;;
944;SDS011;459;48.676;9.034;2022-09-17T05:09:18;4.07;;;2.63;;
944;SDS011;459;48.676;9.034;2022-09-17T05:11:44;2.50;;;2.30;;
944;SDS011;459;48.676;9.034;2022-09-17T05:14:09;4.90;;;2.97;;
944;SDS011;459;48.676;9.034;2022-09-17T05:16:34;3.25;;;2.45;;
944;SDS011;459;48.676;9.034;2022-09-17T05:18:59;4.20;;;2.70;;
944;SDS011;459;48.676;9.034;2022-09-17T05:21:24;3.90;;;2.17;;
944;SDS011;459;48.676;9.034;2022-09-17T05:23:49;4.93;;;2.20;;
944;SDS011;459;48.676;9.034;2022-09-17T05:26:15;9.00;;;2.47;;
944;SDS011;459;48.676;9.034;2022-09-17T05:28:40;2.97;;;2.27;;
944;SDS011;459;48.676;9.034;2022-09-17T05:31:05;2.43;;;2.20;;
944;SDS011;459;48.676;9.034;2022-09-17T05:33:31;3.50;;;2.10;;
944;SDS011;459;48.676;9.034;2022-09-17T05:35:56;2.93;;;2.70;;
944;SDS011;459;48.676;9.034;2022-09-17T05:38:21;4.10;;;2.30;;
944;SDS011;459;48.676;9.034;2022-09-17T05:40:46;3.33;;;2.90;;
944;SDS011;459;48.676;9.034;2022-09-17T05:43:13;2.97;;;2.60;;
944;SDS011;459;48.676;9.034;2022-09-17T05:45:38;4.97;;;2.60;;
944;SDS011;459;48.676;9.034;2022-09-17T05:48:04;6.80;;;2.70;;
944;SDS011;459;48.676;9.034;2022-09-17T05:50:30;6.00;;;3.50;;
944;SDS011;459;48.676;9.034;2022-09-17T05:52:55;15.60;;;4.10;;
944;SDS011;459;48.676;9.034;2022-09-17T05:55:21;4.47;;;2.63;;
944;SDS011;459;48.676;9.034;2022-09-17T05:57:47;4.53;;;4.13;;
944;SDS011;459;48.676;9.034;2022-09-17T06:00:13;11.93;;;4.73;;
944;SDS011;459;48.676;9.034;2022-09-17T06:02:38;5.90;;;3.07;;
944;SDS011;459;48.676;9.034;2022-09-17T06:05:03;6.17;;;2.90;;
944;SDS011;459;48.676;9.034;2022-09-17T06:07:29;4.17;;;2.63;;
944;SDS011;459;48.676;9.034;2022-09-17T06:09:54;7.83;;;3.30;;
944;SDS011;459;48.676;9.034;2022-09-17T06:12:19;3.30;;;2.97;;
944;SDS011;459;48.676;9.034;2022-09-17T06:14:45;6.43;;;3.23;;
944;SDS011;459;48.676;9.034;2022-09-17T06:17:10;3.37;;;3.07;;
944;SDS011;459;48.676;9.034;2022-09-17T06:19:35;4.53;;;3.80;;
944;SDS011;459;48.676;9.034;2022-09-17T06:22:00;3.40;;;3.10;;
944;SDS011;459;48.676;9.034;2022-09-17T06:24:26;4.40;;;2.33;;
944;SDS011;459;48.676;9.034;2022-09-17T06:26:51;3.20;;;2.53;;
944;SDS011;459;48.676;9.034;2022-09-17T06:29:17;3.20;;;2.90;;
944;SDS011;459;48.676;9.034;2022-09-17T06:31:42;3.67;;;2.80;;
944;SDS011;459;48.676;9.034;2022-09-17T06:34:08;3.43;;;2.43;;
944;SDS011;459;48.676;9.034;2022-09-17T06:36:33;4.57;;;3.47;;
944;SDS011;459;48.676;9.034;2022-09-17T06:38:58;4.20;;;3.90;;
944;SDS011;459;48.676;9.034;2022-09-17T06:41:24;3.67;;;3.00;;
944;SDS011;459;48.676;9.034;2022-09-17T06:43:51;6.63;;;3.33;;
944;SDS011;459;48.676;9.034;2022-09-17T06:46:16;7.13;;;3.23;;
944;SDS011;459;48.676;9.034;2022-09-17T06:48:41;4.10;;;3.10;;
944;SDS011;459;48.676;9.034;2022-09-17T06:51:07;3.72;;;3.42;;
944;SDS011;459;48.676;9.034;2022-09-17T06:53:34;4.03;;;2.93;;
944;SDS011;459;48.676;9.034;2022-09-17T06:56:01;2.93;;;2.63;;
944;SDS011;459;48.676;9.034;2022-09-17T06:58:27;4.60;;;2.70;;
944;SDS011;459;48.676;9.034;2022-09-17T07:00:56;3.53;;;2.50;;
944;SDS011;459;48.676;9.034;2022-09-17T07:03:21;3.13;;;2.83;;
944;SDS011;459;48.676;9.034;2022-09-17T07:05:46;4.87;;;3.50;;
944;SDS011;459;48.676;9.034;2022-09-17T07:08:12;4.80;;;3.53;;
944;SDS011;459;48.676;9.034;2022-09-17T07:10:37;3.40;;;3.20;;
944;SDS011;459;48.676;9.034;2022-09-17T07:13:02;4.27;;;2.30;;
944;SDS011;459;48.676;9.034;2022-09-17T07:15:28;5.53;;;3.40;;
944;SDS011;459;48.676;9.034;2022-09-17T07:17:53;4.23;;;2.70;;
944;SDS011;459;48.676;9.034;2022-09-17T07:20:19;7.43;;;3.80;;
944;SDS011;459;48.676;9.034;2022-09-17T07:22:44;4.50;;;3.23;;
944;SDS011;459;48.676;9.034;2022-09-17T07:25:09;8.17;;;3.60;;
944;SDS011;459;48.676;9.034;2022-09-17T07:27:34;3.73;;;2.60;;
944;SDS011;459;48.676;9.034;2022-09-17T07:30:00;4.00;;;3.37;;
944;SDS011;459;48.676;9.034;2022-09-17T07:32:25;3.17;;;2.97;;
944;SDS011;459;48.676;9.034;2022-09-17T07:34:52;3.50;;;2.47;;
944;SDS011;459;48.676;9.034;2022-09-17T07:37:18;3.73;;;2.87;;
944;SDS011;459;48.676;9.034;2022-09-17T07:39:45;2.57;;;2.37;;
944;SDS011;459;48.676;9.034;2022-09-17T07:42:10;3.47;;;3.10;;
944;SDS011;459;48.676;9.034;2022-09-17T07:44:35;4.03;;;2.70;;
944;SDS011;459;48.676;9.034;2022-09-17T07:47:01;6.13;;;2.83;;
944;SDS011;459;48.676;9.034;2022-09-17T07:49:26;5.80;;;3.33;;
944;SDS011;459;48.676;9.034;2022-09-17T07:51:51;3.70;;;2.80;;
944;SDS011;459;48.676;9.034;2022-09-17T07:54:18;5.23;;;3.30;;
944;SDS011;459;48.676;9.034;2022-09-17T07:56:44;2.60;;;2.40;;
944;SDS011;459;48.676;9.034;2022-09-17T07:59:09;3.17;;;2.80;;
944;SDS011;459;48.676;9.034;2022-09-17T08:01:34;5.20;;;3.03;;
944;SDS011;459;48.676;9.034;2022-09-17T08:04:00;4.10;;;3.00;;
944;SDS011;459;48.676;9.034;2022-09-17T08:06:26;4.33;;;3.30;;
944;SDS011;459;48.676;9.034;2022-09-17T08:08:52;4.43;;;3.67;;
944;SDS011;459;48.676;9.034;2022-09-17T08:11:18;3.43;;;3.17;;
944;SDS011;459;48.676;9.034;2022-09-17T08:13:46;4.40;;;3.60;;
944;SDS011;459;48.676;9.034;2022-09-17T08:16:11;9.50;;;3.93;;
944;SDS011;459;48.676;9.034;2022-09-17T08:18:40;9.20;;;4.13;;
944;SDS011;459;48.676;9.034;2022-09-17T08:21:06;3.50;;;3.20;;
944;SDS011;459;48.676;9.034;2022-09-17T08:23:33;4.00;;;3.47;;
944;SDS011;459;48.676;9.034;2022-09-17T08:25:58;3.70;;;3.40;;
944;SDS011;459;48.676;9.034;2022-09-17T08:28:24;2.93;;;2.50;;
944;SDS011;459;48.676;9.034;2022-09-17T08:30:50;3.70;;;3.20;;
944;SDS011;459;48.676;9.034;2022-09-17T08:33:16;4.50;;;3.40;;
944;SDS011;459;48.676;9.034;2022-09-17T08:35:42;3.73;;;3.30;;
944;SDS011;459;48.676;9.034;2022-09-17T08:38:07;4.57;;;3.00;;
944;SDS011;459;48.676;9.034;2022-09-17T08:40:34;5.90;;;3.00;;
944;SDS011;459;48.676;9.034;2022-09-17T08:43:01;4.10;;;3.40;;
944;SDS011;459;48.676;9.034;2022-09-17T08:45:26;7.87;;;3.07;;
944;SDS011;459;48.676;9.034;2022-09-17T08:47:53;4.03;;;3.03;;
944;SDS011;459;48.676;9.034;2022-09-17T08:50:33;3.60;;;2.87;;
944;SDS011;459;48.676;9.034;2022-09-17T08:55:45;3.60;;;2.77;;
944;SDS011;459;48.676;9.034;2022-09-17T09:03:43;6.57;;;3.27;;
944;SDS011;459;48.676;9.034;2022-09-17T09:06:14;5.17;;;3.37;;
944;SDS011;459;48.676;9.034;2022-09-17T09:11:26;5.73;;;3.17;;
944;SDS011;459;48.676;9.034;2022-09-17T09:13:53;5.80;;;3.27;;
944;SDS011;459;48.676;9.034;2022-09-17T09:16:20;7.80;;;3.10;;
944;SDS011;459;48.676;9.034;2022-09-17T09:18:47;4.50;;;2.77;;
944;SDS011;459;48.676;9.034;2022-09-17T09:21:28;7.53;;;3.30;;
944;SDS011;459;48.676;9.034;2022-09-17T09:23:55;9.33;;;4.63;;
944;SDS011;459;48.676;9.034;2022-09-17T09:26:27;6.33;;;3.20;;
944;SDS011;459;48.676;9.034;2022-09-17T09:29:07;5.13;;;2.50;;
944;SDS011;459;48.676;9.034;2022-09-17T09:34:18;8.43;;;3.50;;
944;SDS011;459;48.676;9.034;2022-09-17T09:36:44;4.70;;;2.47;;
944;SDS011;459;48.676;9.034;2022-09-17T09:41:39;3.80;;;2.97;;
944;SDS011;459;48.676;9.034;2022-09-17T09:44:12;6.37;;;2.73;;
944;SDS011;459;48.676;9.034;2022-09-17T09:54:56;4.57;;;3.07;;
944;SDS011;459;48.676;9.034;2022-09-17T09:57:41;8.40;;;3.10;;
944;SDS011;459;48.676;9.034;2022-09-17T10:02:56;6.47;;;3.80;;
944;SDS011;459;48.676;9.034;2022-09-17T10:05:23;8.40;;;4.10;;
944;SDS011;459;48.676;9.034;2022-09-17T10:07:48;7.57;;;3.53;;
944;SDS011;459;48.676;9.034;2022-09-17T10:10:14;4.90;;;2.80;;
944;SDS011;459;48.676;9.034;2022-09-17T10:12:39;4.80;;;4.20;;
944;SDS011;459;48.676;9.034;2022-09-17T10:15:22;4.93;;;2.53;;
944;SDS011;459;48.676;9.034;2022-09-17T10:17:48;4.53;;;2.60;;
944;SDS011;459;48.676;9.034;2022-09-17T10:20:14;7.40;;;3.47;;
944;SDS011;459;48.676;9.034;2022-09-17T10:22:44;3.03;;;2.60;;
944;SDS011;459;48.676;9.034;2022-09-17T10:25:42;7.43;;;2.20;;
944;SDS011;459;48.676;9.034;2022-09-17T10:28:02;5.00;;;3.40;;
944;SDS011;459;48.676;9.034;2022-09-17T10:30:29;6.40;;;2.63;;
944;SDS011;459;48.676;9.034;2022-09-17T10:33:17;2.60;;;1.83;;
944;SDS011;459;48.676;9.034;2022-09-17T10:35:41;4.83;;;2.77;;
944;SDS011;459;48.676;9.034;2022-09-17T10:38:27;10.10;;;2.97;;
944;SDS011;459;48.676;9.034;2022-09-17T10:41:02;4.57;;;2.70;;
944;SDS011;459;48.676;9.034;2022-09-17T10:43:30;4.27;;;2.70;;
944;SDS011;459;48.676;9.034;2022-09-17T10:45:57;2.03;;;1.50;;
944;SDS011;459;48.676;9.034;2022-09-17T10:48:23;4.27;;;2.63;;
944;SDS011;459;48.676;9.034;2022-09-17T10:50:49;2.53;;;1.93;;
944;SDS011;459;48.676;9.034;2022-09-17T10:53:16;2.63;;;1.93;;
944;SDS011;459;48.676;9.034;2022-09-17T10:55:43;4.43;;;2.47;;
944;SDS011;459;48.676;9.034;2022-09-17T11:05:36;4.10;;;2.30;;
944;SDS011;459;48.676;9.034;2022-09-17T11:08:16;5.07;;;2.10;;
944;SDS011;459;48.676;9.034;2022-09-17T11:10:49;5.00;;;2.00;;
944;SDS011;459;48.676;9.034;2022-09-17T11:16:04;2.20;;;1.45;;
944;SDS011;459;48.676;9.034;2022-09-17T11:29:21;3.33;;;1.53;;
944;SDS011;459;48.676;9.034;2022-09-17T11:31:57;1.90;;;1.40;;
944;SDS011;459;48.676;9.034;2022-09-17T11:37:22;2.63;;;1.47;;
944;SDS011;459;48.676;9.034;2022-09-17T11:39:59;2.10;;;1.23;;
944;SDS011;459;48.676;9.034;2022-09-17T11:42:30;6.27;;;1.73;;
944;SDS011;459;48.676;9.034;2022-09-17T11:44:58;1.70;;;1.20;;
944;SDS011;459;48.676;9.034;2022-09-17T11:47:36;2.50;;;1.17;;
944;SDS011;459;48.676;9.034;2022-09-17T11:52:36;2.00;;;1.20;;
944;SDS011;459;48.676;9.034;2022-09-17T11:55:10;1.57;;;1.20;;
944;SDS011;459;48.676;9.034;2022-09-17T11:57:42;1.50;;;1.27;;
944;SDS011;459;48.676;9.034;2022-09-17T12:00:41;2.20;;;1.43;;
944;SDS011;459;48.676;9.034;2022-09-17T12:03:20;2.10;;;1.23;;
944;SDS011;459;48.676;9.034;2022-09-17T12:05:52;3.50;;;1.50;;
944;SDS011;459;48.676;9.034;2022-09-17T12:08:20;2.70;;;1.70;;
944;SDS011;459;48.676;9.034;2022-09-17T12:13:57;1.80;;;1.30;;
944;SDS011;459;48.676;9.034;2022-09-17T12:16:26;2.10;;;1.20;;
944;SDS011;459;48.676;9.034;2022-09-17T12:21:42;2.83;;;0.80;;
944;SDS011;459;48.676;9.034;2022-09-17T12:26:53;1.90;;;1.17;;
944;SDS011;459;48.676;9.034;2022-09-17T12:29:29;1.40;;;1.27;;
944;SDS011;459;48.676;9.034;2022-09-17T12:34:45;1.83;;;1.33;;
944;SDS011;459;48.676;9.034;2022-09-17T12:39:55;3.23;;;1.87;;
944;SDS011;459;48.676;9.034;2022-09-17T12:52:38;1.23;;;1.07;;
944;SDS011;459;48.676;9.034;2022-09-17T12:55:20;2.27;;;1.90;;
944;SDS011;459;48.676;9.034;2022-09-17T13:00:14;1.75;;;1.33;;
944;SDS011;459;48.676;9.034;2022-09-17T13:05:33;2.20;;;1.80;;
944;SDS011;459;48.676;9.034;2022-09-17T13:08:12;3.23;;;1.67;;
944;SDS011;459;48.676;9.034;2022-09-17T13:13:17;2.93;;;1.73;;
944;SDS011;459;48.676;9.034;2022-09-17T13:18:18;3.17;;;2.87;;
944;SDS011;459;48.676;9.034;2022-09-17T13:23:12;3.10;;;2.33;;
944;SDS011;459;48.676;9.034;2022-09-17T13:25:50;2.83;;;2.30;;
944;SDS011;459;48.676;9.034;2022-09-17T13:28:17;3.93;;;1.70;;
944;SDS011;459;48.676;9.034;2022-09-17T13:31:17;2.50;;;2.30;;
944;SDS011;459;48.676;9.034;2022-09-17T13:39:03;2.50;;;1.87;;
944;SDS011;459;48.676;9.034;2022-09-17T13:41:30;3.73;;;1.80;;
944;SDS011;459;48.676;9.034;2022-09-17T13:43:56;3.97;;;1.73;;
944;SDS011;459;48.676;9.034;2022-09-17T13:46:22;3.73;;;2.00;;
944;SDS011;459;48.676;9.034;2022-09-17T13:48:50;1.43;;;1.30;;
944;SDS011;459;48.676;9.034;2022-09-17T13:54:02;1.20;;;1.00;;
944;SDS011;459;48.676;9.034;2022-09-17T13:56:33;1.17;;;1.00;;
944;SDS011;459;48.676;9.034;2022-09-17T13:59:04;1.20;;;1.10;;
944;SDS011;459;48.676;9.034;2022-09-17T14:04:30;1.47;;;1.27;;
944;SDS011;459;48.676;9.034;2022-09-17T14:06:56;2.17;;;1.10;;
944;SDS011;459;48.676;9.034;2022-09-17T14:09:30;1.83;;;1.27;;
944;SDS011;459;48.676;9.034;2022-09-17T14:11:55;1.73;;;1.30;;
944;SDS011;459;48.676;9.034;2022-09-17T14:16:52;2.30;;;1.43;;
944;SDS011;459;48.676;9.034;2022-09-17T14:32:40;1.50;;;1.40;;
944;SDS011;459;48.676;9.034;2022-09-17T14:35:15;2.30;;;2.10;;
944;SDS011;459;48.676;9.034;2022-09-17T14:37:41;1.87;;;1.50;;
944;SDS011;459;48.676;9.034;2022-09-17T14:40:08;2.63;;;1.73;;
944;SDS011;459;48.676;9.034;2022-09-17T14:42:34;2.50;;;1.37;;
944;SDS011;459;48.676;9.034;2022-09-17T14:45:02;3.83;;;1.43;;
944;SDS011;459;48.676;9.034;2022-09-17T14:47:28;2.23;;;1.23;;
944;SDS011;459;48.676;9.034;2022-09-17T14:49:54;1.40;;;1.30;;
944;SDS011;459;48.676;9.034;2022-09-17T14:55:09;4.83;;;1.83;;
944;SDS011;459;48.676;9.034;2022-09-17T14:57:34;3.47;;;1.60;;
944;SDS011;459;48.676;9.034;2022-09-17T15:00:01;1.63;;;1.20;;
944;SDS011;459;48.676;9.034;2022-09-17T15:02:34;4.63;;;1.80;;
944;SDS011;459;48.676;9.034;2022-09-17T15:05:01;3.40;;;1.53;;
944;SDS011;459;48.676;9.034;2022-09-17T15:07:28;2.33;;;1.80;;
944;SDS011;459;48.676;9.034;2022-09-17T15:09:53;2.03;;;1.77;;
944;SDS011;459;48.676;9.034;2022-09-17T15:12:24;1.97;;;1.50;;
944;SDS011;459;48.676;9.034;2022-09-17T15:14:51;2.70;;;1.93;;
944;SDS011;459;48.676;9.034;2022-09-17T15:17:17;4.10;;;1.70;;
944;SDS011;459;48.676;9.034;2022-09-17T15:19:47;3.00;;;1.73;;
944;SDS011;459;48.676;9.034;2022-09-17T15:24:48;2.75;;;1.63;;
944;SDS011;459;48.676;9.034;2022-09-17T15:27:16;2.30;;;1.53;;
944;SDS011;459;48.676;9.034;2022-09-17T15:29:46;3.37;;;1.33;;
944;SDS011;459;48.676;9.034;2022-09-17T15:32:13;6.07;;;1.90;;
944;SDS011;459;48.676;9.034;2022-09-17T15:34:40;4.07;;;2.03;;
944;SDS011;459;48.676;9.034;2022-09-17T15:37:06;4.40;;;1.93;;
944;SDS011;459;48.676;9.034;2022-09-17T15:39:40;6.93;;;1.50;;
944;SDS011;459;48.676;9.034;2022-09-17T15:42:25;3.30;;;2.27;;
944;SDS011;459;48.676;9.034;2022-09-17T15:44:51;2.80;;;2.13;;
944;SDS011;459;48.676;9.034;2022-09-17T15:50:06;2.43;;;2.07;;
944;SDS011;459;48.676;9.034;2022-09-17T15:52:35;4.00;;;1.70;;
944;SDS011;459;48.676;9.034;2022-09-17T15:55:00;3.77;;;1.40;;
944;SDS011;459;48.676;9.034;2022-09-17T15:57:26;1.50;;;1.40;;
944;SDS011;459;48.676;9.034;2022-09-17T15:59:53;1.57;;;1.47;;
944;SDS011;459;48.676;9.034;2022-09-17T16:02:25;1.40;;;1.23;;
944;SDS011;459;48.676;9.034;2022-09-17T16:05:01;3.37;;;2.03;;
944;SDS011;459;48.676;9.034;2022-09-17T16:07:36;2.87;;;1.90;;
944;SDS011;459;48.676;9.034;2022-09-17T16:10:02;4.50;;;1.97;;
944;SDS011;459;48.676;9.034;2022-09-17T16:12:27;5.47;;;1.50;;
944;SDS011;459;48.676;9.034;2022-09-17T16:14:55;5.77;;;1.90;;
944;SDS011;459;48.676;9.034;2022-09-17T16:17:29;3.03;;;1.60;;
944;SDS011;459;48.676;9.034;2022-09-17T16:19:58;2.80;;;1.93;;
944;SDS011;459;48.676;9.034;2022-09-17T16:22:24;4.13;;;1.27;;
944;SDS011;459;48.676;9.034;2022-09-17T16:24:50;2.20;;;1.43;;
944;SDS011;459;48.676;9.034;2022-09-17T16:27:17;1.30;;;1.10;;
944;SDS011;459;48.676;9.034;2022-09-17T16:29:43;3.10;;;1.87;;
944;SDS011;459;48.676;9.034;2022-09-17T16:32:09;2.00;;;1.43;;
944;SDS011;459;48.676;9.034;2022-09-17T16:34:35;3.03;;;1.40;;
944;SDS011;459;48.676;9.034;2022-09-17T16:37:00;3.50;;;1.40;;
944;SDS011;459;48.676;9.034;2022-09-17T16:39:25;2.80;;;1.17;;
944;SDS011;459;48.676;9.034;2022-09-17T16:41:50;5.60;;;1.53;;
944;SDS011;459;48.676;9.034;2022-09-17T16:44:15;1.40;;;1.20;;
944;SDS011;459;48.676;9.034;2022-09-17T16:46:40;1.63;;;1.10;;
944;SDS011;459;48.676;9.034;2022-09-17T16:49:06;1.60;;;1.50;;
944;SDS011;459;48.676;9.034;2022-09-17T16:51:31;3.10;;;1.50;;
944;SDS011;459;48.676;9.034;2022-09-17T16:53:56;5.13;;;1.60;;
944;SDS011;459;48.676;9.034;2022-09-17T16:56:21;3.27;;;2.00;;
944;SDS011;459;48.676;9.034;2022-09-17T16:58:47;1.80;;;1.50;;
944;SDS011;459;48.676;9.034;2022-09-17T17:01:13;4.50;;;1.77;;
944;SDS011;459;48.676;9.034;2022-09-17T17:03:38;2.73;;;1.40;;
944;SDS011;459;48.676;9.034;2022-09-17T17:06:04;1.23;;;1.07;;
944;SDS011;459;48.676;9.034;2022-09-17T17:08:30;2.53;;;1.63;;
944;SDS011;459;48.676;9.034;2022-09-17T17:10:55;3.30;;;1.60;;
944;SDS011;459;48.676;9.034;2022-09-17T17:13:20;1.60;;;1.33;;
944;SDS011;459;48.676;9.034;2022-09-17T17:15:45;1.33;;;1.23;;
944;SDS011;459;48.676;9.034;2022-09-17T17:18:10;2.13;;;1.93;;
944;SDS011;459;48.676;9.034;2022-09-17T17:20:36;4.10;;;2.10;;
944;SDS011;459;48.676;9.034;2022-09-17T17:23:01;1.40;;;1.30;;
944;SDS011;459;48.676;9.034;2022-09-17T17:25:26;2.73;;;1.60;;
944;SDS011;459;48.676;9.034;2022-09-17T17:27:52;3.60;;;2.10;;
944;SDS011;459;48.676;9.034;2022-09-17T17:30:17;1.20;;;1.07;;
944;SDS011;459;48.676;9.034;2022-09-17T17:32:43;3.50;;;1.30;;
944;SDS011;459;48.676;9.034;2022-09-17T17:35:09;2.53;;;1.33;;
944;SDS011;459;48.676;9.034;2022-09-17T17:37:34;3.10;;;2.23;;
944;SDS011;459;48.676;9.034;2022-09-17T17:39:59;3.50;;;1.93;;
944;SDS011;459;48.676;9.034;2022-09-17T17:42:25;8.67;;;1.80;;
944;SDS011;459;48.676;9.034;2022-09-17T17:44:51;2.00;;;1.50;;
944;SDS011;459;48.676;9.034;2022-09-17T17:47:16;3.47;;;2.00;;
944;SDS011;459;48.676;9.034;2022-09-17T17:49:41;3.05;;;1.90;;
944;SDS011;459;48.676;9.034;2022-09-17T17:52:08;6.27;;;2.23;;
944;SDS011;459;48.676;9.034;2022-09-17T17:54:33;2.03;;;1.70;;
944;SDS011;459;48.676;9.034;2022-09-17T17:56:58;2.53;;;1.97;;
944;SDS011;459;48.676;9.034;2022-09-17T17:59:23;1.97;;;1.87;;
944;SDS011;459;48.676;9.034;2022-09-17T18:01:49;7.10;;;3.10;;
944;SDS011;459;48.676;9.034;2022-09-17T18:04:14;5.20;;;2.67;;
944;SDS011;459;48.676;9.034;2022-09-17T18:06:40;3.27;;;2.00;;
944;SDS011;459;48.676;9.034;2022-09-17T18:09:06;3.00;;;2.30;;
944;SDS011;459;48.676;9.034;2022-09-17T18:11:32;5.47;;;2.00;;
944;SDS011;459;48.676;9.034;2022-09-17T18:13:57;4.43;;;2.10;;
944;SDS011;459;48.676;9.034;2022-09-17T18:16:24;3.90;;;2.20;;
944;SDS011;459;48.676;9.034;2022-09-17T18:18:50;2.33;;;1.97;;
944;SDS011;459;48.676;9.034;2022-09-17T18:21:16;3.80;;;1.70;;
944;SDS011;459;48.676;9.034;2022-09-17T18:23:42;4.13;;;2.63;;